Time;durP1;ratioP1;P1;durP2;ratioP2;P2;SDS_P1;SDS_P2;PMS_P1;PMS_P2;Temp;Humidity;BMP_temperature;BMP_pressure;BME280_temperature;BME280_humidity;BME280_pressure;Samples;Min_cycle;Max_cycle;Signal;HPM_P1;HPM_P2
2022/04/23 05:32:31;;;;;;;14.70;10.25;;;;;;;11.07;97.67;97356.59;5114399;27;20351;-60
2022/04/23 05:34:57;;;;;;;15.70;11.23;;;;;;;10.96;97.43;97325.81;5099428;28;20063;-62
2022/04/23 05:37:23;;;;;;;18.45;11.80;;;;;;;11.19;97.27;97359.56;5097309;28;20685;-59
2022/04/23 05:39:48;;;;;;;15.70;10.82;;;;;;;11.22;96.00;97355.81;5082166;28;20037;-59
2022/04/23 05:42:14;;;;;;;15.73;11.63;;;;;;;11.22;94.94;97361.00;5097299;28;20434;-61
2022/04/23 05:44:39;;;;;;;17.40;11.52;;;;;;;11.24;94.90;97375.44;5096661;28;20373;-60
2022/04/23 05:47:05;;;;;;;13.68;10.77;;;;;;;11.12;93.61;97359.47;5096855;28;20658;-60
2022/04/23 05:49:30;;;;;;;13.85;10.45;;;;;;;11.35;94.51;97384.59;5097994;28;20527;-60
2022/04/23 05:51:55;;;;;;;13.77;11.10;;;;;;;11.32;94.10;97385.78;5098041;28;20019;-60
2022/04/23 05:54:21;;;;;;;14.70;10.77;;;;;;;11.39;95.15;97388.47;5097606;28;20032;-60
2022/04/23 05:56:46;;;;;;;13.65;11.05;;;;;;;11.20;94.99;97352.56;5098326;28;20028;-59
2022/04/23 05:59:12;;;;;;;15.68;11.68;;;;;;;11.42;94.65;97395.09;5079575;28;20054;-61
2022/04/23 06:01:37;;;;;;;15.75;11.93;;;;;;;11.33;95.16;97399.59;5081747;28;20549;-58
2022/04/23 06:04:03;;;;;;;15.48;11.35;;;;;;;11.19;95.73;97369.16;5097501;28;20032;-60
2022/04/23 06:06:28;;;;;;;16.70;12.80;;;;;;;11.42;95.73;97395.09;5099714;28;20557;-61
2022/04/23 06:08:54;;;;;;;20.45;16.50;;;;;;;11.40;95.06;97395.28;5079612;28;20039;-59
2022/04/23 06:11:19;;;;;;;27.25;19.80;;;;;;;11.36;95.00;97386.22;5095729;28;20028;-59
2022/04/23 06:13:44;;;;;;;26.58;19.38;;;;;;;11.39;95.15;97391.06;5097817;28;20047;-61
2022/04/23 06:16:10;;;;;;;26.00;20.60;;;;;;;11.30;96.15;97397.34;5091786;28;20809;-59
2022/04/23 06:18:35;;;;;;;27.85;20.45;;;;;;;11.25;96.87;97394.47;5097806;28;20042;-59
2022/04/23 06:21:01;;;;;;;28.65;19.08;;;;;;;11.42;97.11;97392.50;5094201;28;20042;-60
2022/04/23 06:23:26;;;;;;;24.73;18.45;;;;;;;11.15;96.90;97353.09;5098136;28;20033;-59
2022/04/23 06:25:52;;;;;;;26.52;19.05;;;;;;;11.10;96.29;97355.44;5096019;28;20123;-59
2022/04/23 06:28:17;;;;;;;23.67;18.83;;;;;;;11.15;95.91;97381.72;5075741;28;20035;-59
2022/04/23 06:30:43;;;;;;;27.90;18.88;;;;;;;11.30;97.09;97386.94;5094055;28;20082;-59
2022/04/23 06:33:08;;;;;;;27.38;19.13;;;;;;;11.41;97.98;97393.47;5096480;28;20653;-61
2022/04/23 06:35:34;;;;;;;25.25;20.00;;;;;;;11.45;99.51;97398.16;5097252;28;20035;-58
2022/04/23 06:38:01;;;;;;;28.10;20.63;;;;;;;11.25;97.01;97391.88;5095627;28;20442;-60
2022/04/23 06:40:26;;;;;;;28.98;22.02;;;;;;;11.44;97.55;97390.53;5080582;28;20035;-60
2022/04/23 06:42:52;;;;;;;29.80;22.10;;;;;;;11.43;99.55;97389.72;5065475;28;20028;-60
2022/04/23 06:45:17;;;;;;;29.48;21.58;;;;;;;11.34;97.61;97386.41;5083491;28;20806;-59
2022/04/23 06:47:42;;;;;;;30.75;21.20;;;;;;;11.41;97.27;97396.09;5082997;28;20028;-59
2022/04/23 06:50:08;;;;;;;26.10;18.85;;;;;;;11.27;97.51;97379.50;5081857;28;20032;-61
2022/04/23 06:52:34;;;;;;;20.38;16.25;;;;;;;11.12;97.59;97389.91;5083839;28;20099;-59
2022/04/23 06:54:59;;;;;;;25.65;18.98;;;;;;;11.20;97.15;97394.19;5065787;28;20020;-59
2022/04/23 06:57:25;;;;;;;28.23;20.63;;;;;;;11.04;97.55;97364.75;5083504;28;20523;-59
2022/04/23 06:59:51;;;;;;;24.02;17.92;;;;;;;11.20;97.99;97394.19;5082510;28;20062;-58
2022/04/23 07:02:18;;;;;;;22.95;17.02;;;;;;;11.28;98.27;97394.09;5066129;28;20031;-58
2022/04/23 07:04:43;;;;;;;19.67;15.00;;;;;;;11.06;97.94;97364.56;5082016;28;20032;-60
2022/04/23 07:07:10;;;;;;;20.83;14.73;;;;;;;11.18;97.62;97406.59;5082165;28;20448;-60
2022/04/23 07:09:36;;;;;;;20.15;14.23;;;;;;;11.22;96.18;97395.63;5059826;28;20031;-58
2022/04/23 07:12:01;;;;;;;23.38;16.23;;;;;;;11.18;96.01;97394.38;5075401;28;20553;-60
2022/04/23 07:14:27;;;;;;;21.63;15.60;;;;;;;11.19;96.00;97401.22;5085244;28;20086;-58
2022/04/23 07:16:52;;;;;;;25.00;18.00;;;;;;;11.22;95.43;97406.03;5076985;28;20101;-59
2022/04/23 07:19:17;;;;;;;23.10;17.90;;;;;;;11.34;96.39;97399.41;5083043;28;20399;-59
2022/04/23 07:21:43;;;;;;;23.05;16.88;;;;;;;11.35;97.27;97398.44;5084024;28;20072;-59
2022/04/23 07:24:10;;;;;;;21.80;15.68;;;;;;;11.29;94.80;97409.53;5064116;28;20028;-59
2022/04/23 07:26:36;;;;;;;20.67;16.48;;;;;;;11.08;96.49;97363.44;5082921;28;20114;-58
2022/04/23 07:29:07;;;;;;;21.98;16.42;;;;;;;11.08;96.32;97365.19;5060109;28;20089;-60
2022/04/23 07:31:33;;;;;;;20.92;16.45;;;;;;;11.28;96.78;97405.34;5066199;28;20038;-59
2022/04/23 07:39:26;;;;;;;21.67;16.60;;;;;;;11.43;97.35;97410.53;5083982;28;20030;-58
2022/04/23 07:41:54;;;;;;;23.42;17.13;;;;;;;11.36;95.12;97420.06;5064641;28;20028;-58
2022/04/23 07:44:22;;;;;;;21.75;16.88;;;;;;;11.32;95.32;97405.78;5066530;28;20070;-59
2022/04/23 07:46:48;;;;;;;21.75;17.50;;;;;;;11.27;94.61;97389.91;5063683;28;20106;-59
2022/04/23 07:49:14;;;;;;;23.98;18.27;;;;;;;11.38;95.40;97407.66;5082325;28;20123;-60
2022/04/23 07:51:41;;;;;;;24.63;17.00;;;;;;;11.43;95.64;97409.75;5081783;28;20036;-59
2022/04/23 07:54:06;;;;;;;21.92;15.75;;;;;;;11.22;92.80;97381.81;5060358;28;20089;-60
2022/04/23 07:56:32;;;;;;;23.13;17.52;;;;;;;11.09;94.21;97366.81;5082497;28;20024;-59
2022/04/23 07:58:58;;;;;;;22.85;16.50;;;;;;;11.48;94.15;97412.59;5064189;28;20524;-59
2022/04/23 08:01:23;;;;;;;21.38;15.98;;;;;;;11.52;93.92;97416.47;5082855;28;20382;-60
2022/04/23 08:03:48;;;;;;;18.05;13.63;;;;;;;11.38;92.34;97383.44;5082053;28;20035;-58
2022/04/23 08:06:14;;;;;;;17.55;13.25;;;;;;;11.23;92.40;97370.44;5082321;28;20034;-59
2022/04/23 08:08:39;;;;;;;16.52;13.30;;;;;;;11.50;92.65;97415.84;5080669;28;20039;-61
2022/04/23 08:11:06;;;;;;;23.27;15.50;;;;;;;11.50;93.19;97413.25;5066341;28;20135;-60
2022/04/23 08:13:32;;;;;;;18.92;14.50;;;;;;;11.52;94.40;97419.88;5075731;28;20023;-58
2022/04/23 08:15:59;;;;;;;17.25;13.23;;;;;;;11.60;94.42;97424.19;5060557;28;20854;-60
2022/04/23 08:18:25;;;;;;;16.55;12.65;;;;;;;11.55;92.76;97416.09;5075303;28;20035;-59
2022/04/23 08:20:51;;;;;;;16.27;12.15;;;;;;;11.51;92.27;97425.25;5081214;28;20028;-59
2022/04/23 08:23:18;;;;;;;18.38;13.25;;;;;;;11.61;93.13;97422.38;5081675;28;20040;-59
2022/04/23 08:25:45;;;;;;;18.60;13.85;;;;;;;11.52;93.68;97400.84;5064387;28;20643;-60
2022/04/23 08:30:54;;;;;;;16.27;12.10;;;;;;;11.80;93.54;97431.44;5078393;28;20043;-59
2022/04/23 08:33:20;;;;;;;15.10;11.57;;;;;;;11.82;91.89;97424.25;5061927;28;20028;-60
2022/04/23 08:35:45;;;;;;;16.35;12.05;;;;;;;11.96;91.33;97433.88;5081493;28;20701;-59
2022/04/23 08:38:11;;;;;;;15.40;11.07;;;;;;;11.88;91.24;97433.94;5080437;28;20526;-59
2022/04/23 08:40:39;;;;;;;15.23;11.32;;;;;;;11.85;91.33;97414.28;5082026;28;20024;-59
2022/04/23 08:43:06;;;;;;;14.05;11.02;;;;;;;11.79;92.69;97435.88;5080296;28;20032;-59
2022/04/23 08:45:32;;;;;;;15.27;11.93;;;;;;;11.59;92.68;97416.53;5076623;28;20055;-58
2022/04/23 08:47:59;;;;;;;15.88;11.88;;;;;;;11.76;91.47;97451.03;5060976;28;20036;-61
2022/04/23 08:50:26;;;;;;;14.95;10.93;;;;;;;11.73;91.00;97437.38;5073747;28;20020;-58
2022/04/23 08:52:54;;;;;;;15.20;11.25;;;;;;;11.66;91.28;97439.09;5075204;28;20020;-59
2022/04/23 08:55:19;;;;;;;14.25;11.07;;;;;;;11.45;90.64;97408.56;5081851;28;20040;-60
2022/04/23 08:57:45;;;;;;;14.00;10.48;;;;;;;11.69;90.46;97435.31;5063500;28;20027;-60
2022/04/23 09:00:15;;;;;;;14.82;11.27;;;;;;;11.67;91.28;97434.69;5064734;28;20607;-59
2022/04/23 09:02:42;;;;;;;16.00;11.90;;;;;;;11.38;91.84;97404.25;5077546;28;20486;-59
2022/04/23 09:05:08;;;;;;;14.93;11.30;;;;;;;11.69;91.77;97451.75;5077429;28;20063;-59
2022/04/23 09:07:34;;;;;;;18.50;12.48;;;;;;;11.74;91.33;97443.41;5081862;28;20020;-59
2022/04/23 09:10:00;;;;;;;14.23;11.02;;;;;;;11.76;89.65;97446.63;5074216;28;20080;-60
2022/04/23 09:12:27;;;;;;;16.92;11.50;;;;;;;11.78;89.22;97451.66;5056343;28;20537;-59
2022/04/23 09:15:04;;;;;;;15.55;11.75;;;;;;;11.80;89.83;97457.50;5076184;28;20039;-61
2022/04/23 09:25:46;;;;;;;13.40;10.93;;;;;;;11.80;90.13;97447.88;5075050;28;20058;-60
2022/04/23 09:28:17;;;;;;;14.52;10.93;;;;;;;11.83;90.01;97462.34;5074428;28;20032;-59
2022/04/23 09:30:44;;;;;;;15.80;11.82;;;;;;;11.81;90.68;97454.72;5081135;28;20708;-61
2022/04/23 09:33:09;;;;;;;17.48;13.25;;;;;;;11.72;91.24;97450.59;5080406;28;20024;-59
2022/04/23 09:35:34;;;;;;;16.52;12.35;;;;;;;11.59;91.08;97416.53;5080680;28;20715;-61
2022/04/23 09:38:18;;;;;;;15.98;12.85;;;;;;;11.92;92.75;97456.09;5079723;28;20119;-62
2022/04/23 09:40:49;;;;;;;19.58;13.63;;;;;;;12.03;92.64;97460.00;5060998;28;20153;-61
2022/04/23 09:43:15;;;;;;;16.55;13.45;;;;;;;12.11;93.33;97460.72;5079352;28;20035;-59
2022/04/23 09:45:43;;;;;;;18.40;12.55;;;;;;;12.07;93.21;97456.06;5073525;28;20390;-59
2022/04/23 09:48:12;;;;;;;15.77;12.77;;;;;;;12.09;91.83;97459.28;5064409;28;20029;-59
2022/04/23 09:50:38;;;;;;;15.45;12.50;;;;;;;12.16;91.27;97456.78;5082272;28;20529;-61
2022/04/23 09:53:16;;;;;;;15.77;12.10;;;;;;;12.20;89.53;97453.59;5080079;28;20035;-60
2022/04/23 09:55:43;;;;;;;15.20;12.07;;;;;;;12.10;89.11;97448.69;5061945;28;20585;-59
2022/04/23 09:58:09;;;;;;;15.02;12.02;;;;;;;12.14;90.80;97451.75;5077122;28;20028;-61
2022/04/23 10:00:43;;;;;;;18.27;13.20;;;;;;;12.09;90.90;97465.31;5064062;28;20024;-61
2022/04/23 10:03:10;;;;;;;20.40;14.35;;;;;;;12.11;94.69;97449.50;5078666;28;20032;-62
2022/04/23 10:05:49;;;;;;;20.00;14.90;;;;;;;12.16;95.17;97459.38;5078193;28;20290;-60
2022/04/23 10:08:15;;;;;;;19.47;15.10;;;;;;;12.31;95.82;97460.94;5082405;28;20495;-59
2022/04/23 10:10:56;;;;;;;18.15;14.52;;;;;;;12.17;96.34;97422.69;5062699;28;20032;-60
2022/04/23 10:13:23;;;;;;;19.40;14.43;;;;;;;12.20;94.02;97417.13;5064293;28;20486;-59
2022/04/23 10:15:51;;;;;;;19.92;14.73;;;;;;;12.33;94.15;97452.16;5074635;28;20570;-61
2022/04/23 10:18:17;;;;;;;17.70;14.68;;;;;;;12.29;93.42;97462.13;5063101;28;20048;-59
2022/04/23 10:20:53;;;;;;;18.52;14.70;;;;;;;12.27;95.18;97454.50;5085199;28;20225;-58
2022/04/23 10:24:03;;;;;;;19.95;15.73;;;;;;;12.28;94.86;97452.69;5083471;28;20032;-59
2022/04/23 10:26:48;;;;;;;;;;;;;;;12.25;95.39;97456.47;5084273;28;20020;-58
2022/04/23 10:29:16;;;;;;;18.02;13.88;;;;;;;12.08;95.67;97453.28;5063694;28;19977;-59
2022/04/23 10:31:42;;;;;;;19.38;14.50;;;;;;;12.03;96.31;97457.41;5066908;28;20035;-60
2022/04/23 10:34:32;;;;;;;21.52;15.90;;;;;;;12.00;97.29;97463.78;5064297;28;20047;-59
2022/04/23 10:37:19;;;;;;;19.60;15.23;;;;;;;12.07;94.50;97445.63;5065460;28;20035;-58
2022/04/23 10:39:51;;;;;;;18.42;15.02;;;;;;;11.99;92.48;97422.28;5084884;28;20501;-60
2022/04/23 10:42:17;;;;;;;22.95;16.02;;;;;;;12.35;95.06;97450.97;5079290;28;20032;-58
2022/04/23 10:44:44;;;;;;;21.83;16.05;;;;;;;12.47;96.24;97444.28;5083052;28;20032;-59
2022/04/23 10:47:32;;;;;;;21.02;14.68;;;;;;;12.33;94.49;97413.03;5078896;28;20119;-59
2022/04/23 10:50:18;;;;;;;20.23;15.75;;;;;;;12.38;94.21;97445.38;5060829;28;20036;-59
2022/04/23 10:52:44;;;;;;;19.90;14.82;;;;;;;12.29;93.65;97447.28;5078613;28;20061;-57
2022/04/23 10:55:11;;;;;;;19.45;14.35;;;;;;;12.15;94.21;97436.91;5062928;28;20578;-61
2022/04/23 10:57:40;;;;;;;23.05;15.40;;;;;;;12.16;95.15;97443.75;5066765;28;20032;-59
2022/04/23 11:00:12;;;;;;;19.10;14.20;;;;;;;12.20;94.23;97452.81;5072697;28;20122;-60
2022/04/23 11:02:39;;;;;;;17.33;14.13;;;;;;;12.14;93.78;97450.91;5074711;28;20024;-59
2022/04/23 11:13:54;;;;;;;18.02;13.55;;;;;;;12.33;95.63;97436.50;5069953;28;20043;-58
2022/04/23 11:16:22;;;;;;;20.52;14.88;;;;;;;12.43;98.36;97427.41;5062710;28;20845;-59
2022/04/23 11:18:55;;;;;;;17.75;14.13;;;;;;;12.41;96.39;97434.59;5061690;28;20052;-59
2022/04/23 11:21:26;;;;;;;20.35;14.80;;;;;;;12.37;96.87;97441.16;5067645;28;20475;-59
2022/04/23 11:23:54;;;;;;;21.33;14.35;;;;;;;12.49;97.48;97425.84;5049370;28;20115;-59
2022/04/23 11:26:26;;;;;;;16.75;13.32;;;;;;;12.39;94.12;97402.66;5057933;28;20446;-59
2022/04/23 11:28:59;;;;;;;18.30;13.88;;;;;;;12.32;95.52;97391.41;5066914;28;20123;-60
2022/04/23 11:31:26;;;;;;;19.50;12.43;;;;;;;12.53;96.18;97432.28;5069854;28;20039;-59
2022/04/23 11:33:59;;;;;;;18.30;12.38;;;;;;;12.47;95.57;97431.25;5069066;28;20024;-62
2022/04/23 11:36:28;;;;;;;13.98;10.02;;;;;;;12.58;91.49;97429.16;5065664;28;20899;-60
2022/04/23 11:38:58;;;;;;;12.93;8.45;;;;;;;12.51;87.83;97426.47;5061291;28;20043;-59
2022/04/23 11:41:44;;;;;;;12.52;8.85;;;;;;;12.63;87.76;97439.78;5052868;28;20085;-61
2022/04/23 11:47:04;;;;;;;16.58;11.52;;;;;;;12.49;92.18;97434.47;5063823;28;20043;-61
2022/04/23 11:49:31;;;;;;;15.80;12.27;;;;;;;12.48;93.88;97424.22;5042942;28;20058;-60
2022/04/23 11:52:07;;;;;;;18.55;12.15;;;;;;;12.17;91.84;97382.81;5058832;28;20517;-59
2022/04/23 11:54:43;;;;;;;16.45;12.43;;;;;;;12.36;92.09;97421.31;5020228;28;20154;-60
2022/04/23 11:57:16;;;;;;;18.63;12.20;;;;;;;12.03;90.49;97374.03;5064777;28;20469;-59
2022/04/23 11:59:43;;;;;;;17.80;13.07;;;;;;;12.41;92.68;97421.56;5068263;28;20093;-59
2022/04/23 12:02:26;;;;;;;19.77;13.05;;;;;;;12.45;90.43;97427.22;5050479;28;20739;-59
2022/04/23 12:04:53;;;;;;;19.90;12.55;;;;;;;12.49;93.63;97425.84;5064994;28;20034;-59
2022/04/23 12:07:19;;;;;;;19.10;13.60;;;;;;;12.32;94.11;97380.97;5045472;28;20437;-59
2022/04/23 12:09:45;;;;;;;20.95;14.00;;;;;;;12.35;91.07;97391.00;5065724;28;20094;-59
2022/04/23 12:12:11;;;;;;;17.75;12.52;;;;;;;12.55;90.26;97414.66;5064790;28;20037;-60
2022/04/23 12:14:47;;;;;;;15.43;11.77;;;;;;;12.55;89.31;97411.25;5067202;28;20027;-58
2022/04/23 12:17:29;;;;;;;19.48;13.68;;;;;;;12.69;91.60;97405.16;5061102;28;20040;-59
2022/04/23 12:19:59;;;;;;;19.35;13.73;;;;;;;12.80;91.78;97391.63;5057939;28;20036;-58
2022/04/23 12:22:28;;;;;;;17.73;13.82;;;;;;;12.78;91.67;97390.19;5073434;28;20039;-58
2022/04/23 12:25:18;;;;;;;20.00;14.30;;;;;;;12.41;89.37;97363.38;5070594;28;20032;-58
2022/04/23 12:28:02;;;;;;;14.75;10.63;;;;;;;12.59;89.43;97397.63;5072697;28;20031;-60
2022/04/23 12:42:02;;;;;;;13.95;9.07;;;;;;;12.33;90.69;97387.78;5064583;28;20070;-59
2022/04/23 12:44:37;;;;;;;11.85;8.23;;;;;;;12.27;90.28;97378.91;5071439;28;20466;-60
2022/04/23 12:47:08;;;;;;;12.15;7.72;;;;;;;12.03;90.02;97351.41;5071794;28;20781;-59
2022/04/23 12:49:54;;;;;;;11.88;9.00;;;;;;;12.40;91.74;97386.03;5071731;28;20032;-60
2022/04/23 12:52:27;;;;;;;11.50;8.85;;;;;;;12.42;94.32;97384.06;5060028;28;20625;-59
2022/04/23 12:55:18;;;;;;;14.85;9.50;;;;;;;12.39;92.44;97376.59;5069336;28;20028;-60
2022/04/23 12:57:46;;;;;;;12.45;9.25;;;;;;;12.39;94.36;97379.22;5077644;28;20119;-62
2022/04/23 13:00:16;;;;;;;15.27;10.55;;;;;;;12.22;96.87;97326.53;5061911;28;20085;-59
2022/04/23 13:02:49;;;;;;;14.32;9.57;;;;;;;12.45;95.95;97375.88;5061555;28;20020;-58
2022/04/23 13:05:15;;;;;;;15.48;11.10;;;;;;;12.46;96.39;97379.28;5057104;28;20113;-61
2022/04/23 13:10:25;;;;;;;15.20;9.23;;;;;;;12.50;93.40;97368.31;5042123;28;20078;-59
2022/04/23 13:12:51;;;;;;;11.73;9.02;;;;;;;12.52;93.29;97359.47;5074922;28;20039;-59
2022/04/23 13:15:17;;;;;;;14.88;9.18;;;;;;;12.49;94.06;97371.09;5060053;28;20024;-59
2022/04/23 13:17:43;;;;;;;13.85;9.82;;;;;;;12.49;94.76;97366.69;5060401;28;20078;-60
2022/04/23 13:20:09;;;;;;;14.55;10.20;;;;;;;12.16;95.30;97316.88;5076026;28;20580;-60
2022/04/23 13:22:35;;;;;;;14.80;10.40;;;;;;;12.25;95.82;97335.78;5068498;28;20827;-58
2022/04/23 13:25:02;;;;;;;13.02;9.48;;;;;;;12.35;94.43;97359.72;5060617;28;20040;-61
2022/04/23 13:27:29;;;;;;;13.48;8.10;;;;;;;12.28;93.22;97354.47;5071182;28;20114;-60
2022/04/23 13:29:55;;;;;;;12.50;9.20;;;;;;;12.24;94.35;97347.19;5077308;28;20032;-59
2022/04/23 13:32:21;;;;;;;13.43;8.45;;;;;;;12.20;93.15;97348.56;5069071;28;20032;-59
2022/04/23 13:34:46;;;;;;;13.40;9.73;;;;;;;12.36;95.45;97344.88;5061477;28;20035;-58
2022/04/23 13:37:12;;;;;;;12.35;9.25;;;;;;;12.38;93.86;97341.13;5058103;28;20474;-59
2022/04/23 13:39:37;;;;;;;13.73;9.35;;;;;;;12.38;92.66;97329.91;5060784;28;20361;-61
2022/04/23 13:42:03;;;;;;;14.80;9.38;;;;;;;12.04;92.82;97268.84;5079980;28;20062;-60
2022/04/23 13:44:30;;;;;;;12.30;8.90;;;;;;;12.53;92.99;97303.75;5079047;28;20113;-60
2022/04/23 13:46:56;;;;;;;12.15;8.88;;;;;;;12.42;92.01;97308.47;5055901;28;20081;-59
2022/04/23 13:49:23;;;;;;;10.77;8.30;;;;;;;12.39;91.41;97308.81;5051685;28;20033;-59
2022/04/23 13:51:49;;;;;;;12.75;9.00;;;;;;;12.40;92.17;97313.06;5055916;28;20851;-58
2022/04/23 13:54:14;;;;;;;12.02;8.57;;;;;;;12.30;92.34;97302.13;5075781;28;20035;-59
2022/04/23 13:56:40;;;;;;;11.30;8.50;;;;;;;12.27;92.60;97305.94;5066770;28;20051;-58
2022/04/23 13:59:09;;;;;;;9.50;7.03;;;;;;;12.39;90.85;97313.25;5069819;28;20024;-58
2022/04/23 14:01:35;;;;;;;10.02;7.20;;;;;;;12.31;90.95;97304.56;5075467;28;20025;-60
2022/04/23 14:12:14;;;;;;;13.30;8.18;;;;;;;12.28;93.28;97299.75;5071695;28;20097;-59
2022/04/23 14:14:39;;;;;;;10.45;7.93;;;;;;;12.00;93.42;97265.81;5060528;28;20080;-59
2022/04/23 14:17:04;;;;;;;10.38;7.32;;;;;;;11.88;92.02;97246.41;5051551;28;20620;-59
2022/04/23 14:19:30;;;;;;;12.25;9.23;;;;;;;12.08;92.95;97291.75;5048834;28;20036;-60
2022/04/23 14:21:55;;;;;;;13.93;9.27;;;;;;;12.04;94.43;97293.09;5049187;28;20147;-60
2022/04/23 14:24:21;;;;;;;11.70;8.18;;;;;;;12.01;96.23;97279.63;5070886;28;20084;-59
2022/04/23 14:26:46;;;;;;;11.98;9.43;;;;;;;11.89;94.58;97274.09;5055873;28;20073;-59
2022/04/23 14:29:12;;;;;;;12.80;8.45;;;;;;;11.97;94.03;97271.38;5073984;28;20036;-59
2022/04/23 14:31:37;;;;;;;12.50;8.55;;;;;;;11.89;94.56;97268.88;5074438;28;20032;-58
2022/04/23 14:34:03;;;;;;;14.80;9.60;;;;;;;11.76;98.21;97268.75;5068950;28;20109;-59
2022/04/23 14:36:30;;;;;;;14.88;8.90;;;;;;;11.76;98.29;97272.16;5068146;28;20494;-59
2022/04/23 14:38:56;;;;;;;13.13;8.88;;;;;;;11.78;98.25;97291.00;5074113;28;20824;-60
2022/04/23 14:41:23;;;;;;;15.43;10.02;;;;;;;11.71;99.86;97280.50;5075650;28;20018;-58
2022/04/23 14:43:49;;;;;;;20.80;10.95;;;;;;;11.67;98.30;97270.66;5067811;28;20139;-59
2022/04/23 14:46:15;;;;;;;15.50;10.27;;;;;;;11.58;98.03;97277.78;5061540;28;20131;-58
2022/04/23 14:48:40;;;;;;;14.93;9.40;;;;;;;11.50;98.85;97285.69;5059123;28;20042;-60
2022/04/23 14:53:50;;;;;;;15.25;9.07;;;;;;;11.52;99.65;97288.94;5065694;28;20834;-59
2022/04/23 14:56:15;;;;;;;14.90;9.50;;;;;;;11.54;100.00;97289.56;5067392;28;20191;-59
2022/04/23 14:58:40;;;;;;;14.93;10.23;;;;;;;11.57;100.00;97307.38;5068513;28;20938;-59
2022/04/23 15:01:06;;;;;;;15.75;10.05;;;;;;;11.66;100.00;97319.34;5079829;28;20031;-58
2022/04/23 15:03:33;;;;;;;14.82;8.88;;;;;;;11.62;100.00;97297.22;5082632;28;20518;-57
2022/04/23 15:05:59;;;;;;;13.15;8.85;;;;;;;11.57;100.00;97299.56;5075419;28;20066;-58
2022/04/23 15:08:25;;;;;;;13.60;9.00;;;;;;;11.50;100.00;97298.72;5073478;28;20093;-58
2022/04/23 15:10:50;;;;;;;12.90;9.13;;;;;;;11.37;100.00;97301.16;5074780;28;20483;-58
2022/04/23 15:13:16;;;;;;;12.77;8.93;;;;;;;11.37;100.00;97320.16;5074532;28;20043;-59
2022/04/23 15:15:43;;;;;;;13.93;9.90;;;;;;;11.21;100.00;97295.16;5074383;28;20637;-57
2022/04/23 15:18:08;;;;;;;13.80;8.70;;;;;;;11.23;100.00;97318.41;5069647;28;20030;-58
2022/04/23 15:20:35;;;;;;;12.90;9.43;;;;;;;11.19;100.00;97330.97;5073720;28;20024;-56
2022/04/23 15:23:01;;;;;;;18.27;10.30;;;;;;;11.20;100.00;97324.75;5075077;28;20025;-57
2022/04/23 15:25:27;;;;;;;16.98;10.50;;;;;;;11.24;100.00;97326.00;5076362;28;20430;-57
2022/04/23 15:27:54;;;;;;;20.77;13.55;;;;;;;11.19;100.00;97317.94;5076986;28;20028;-57
2022/04/23 15:30:23;;;;;;;15.88;10.40;;;;;;;11.50;100.00;97332.56;5077701;28;20028;-56
2022/04/23 15:32:50;;;;;;;16.77;9.93;;;;;;;11.26;100.00;97323.22;5078166;28;20032;-56
2022/04/23 15:35:15;;;;;;;11.27;7.75;;;;;;;10.93;100.00;97284.56;5077884;28;20090;-57
2022/04/23 15:37:42;;;;;;;12.80;8.85;;;;;;;11.13;100.00;97305.66;5077810;28;20545;-57
2022/04/23 15:40:07;;;;;;;14.20;9.95;;;;;;;10.92;100.00;97270.75;5074220;28;20085;-58
2022/04/23 15:42:33;;;;;;;11.10;8.82;;;;;;;10.91;100.00;97273.53;5060617;28;20494;-57
2022/04/23 15:44:59;;;;;;;11.95;8.20;;;;;;;10.90;100.00;97284.94;5078643;28;20042;-57
2022/04/23 15:47:25;;;;;;;13.38;9.43;;;;;;;11.05;100.00;97316.16;5080368;28;20058;-58
2022/04/23 15:49:50;;;;;;;12.02;9.20;;;;;;;11.07;100.00;97319.38;5082102;28;20032;-57
2022/04/23 15:52:17;;;;;;;15.30;9.77;;;;;;;11.13;100.00;97323.84;5079468;28;20056;-58
2022/04/23 15:54:43;;;;;;;13.10;9.45;;;;;;;11.03;100.00;97316.34;5076291;28;20611;-58
2022/04/23 15:57:09;;;;;;;12.05;9.15;;;;;;;10.94;100.00;97310.41;5081754;28;20028;-58
2022/04/23 15:59:34;;;;;;;12.45;8.50;;;;;;;10.82;100.00;97283.22;5081108;28;20039;-58
2022/04/23 16:02:00;;;;;;;11.20;8.00;;;;;;;10.98;100.00;97312.66;5080710;28;20512;-58
2022/04/23 16:04:25;;;;;;;13.82;7.78;;;;;;;11.02;100.00;97325.09;5081702;28;20063;-57
2022/04/23 16:06:51;;;;;;;13.23;9.18;;;;;;;11.03;100.00;97334.53;5079912;28;20107;-57
2022/04/23 16:09:16;;;;;;;12.63;9.13;;;;;;;10.70;100.00;97274.25;5079545;28;20028;-58
2022/04/23 16:11:41;;;;;;;10.55;7.22;;;;;;;10.92;100.00;97316.78;5081761;28;20730;-57
2022/04/23 16:14:07;;;;;;;12.55;8.90;;;;;;;10.64;100.00;97280.16;5082522;28;20787;-56
2022/04/23 16:16:32;;;;;;;15.02;9.20;;;;;;;10.74;100.00;97311.91;5079831;28;20527;-57
2022/04/23 16:18:58;;;;;;;13.20;8.38;;;;;;;10.75;100.00;97314.34;5077936;28;20404;-57
2022/04/23 16:21:23;;;;;;;12.57;8.60;;;;;;;10.64;100.00;97311.34;5086452;28;20081;-56
2022/04/23 16:23:48;;;;;;;14.07;8.65;;;;;;;10.37;100.00;97249.38;5085241;28;20109;-58
2022/04/23 16:26:14;;;;;;;12.20;9.52;;;;;;;10.40;100.00;97253.41;5084761;27;20024;-56
2022/04/23 16:28:40;;;;;;;13.20;9.32;;;;;;;10.69;100.00;97294.22;5080697;28;20036;-57
2022/04/23 16:31:05;;;;;;;13.55;9.68;;;;;;;10.64;100.00;97293.16;5081505;28;20031;-57
2022/04/23 16:33:31;;;;;;;11.75;7.85;;;;;;;10.69;100.00;97312.44;5083041;28;20032;-57
2022/04/23 16:46:51;;;;;;;10.70;7.40;;;;;;;10.63;100.00;97278.56;5071332;28;20125;-56
2022/04/23 16:49:16;;;;;;;8.35;6.05;;;;;;;10.59;100.00;97272.91;5076529;28;20028;-58
2022/04/23 16:51:42;;;;;;;9.75;6.13;;;;;;;10.55;100.00;97262.06;5081172;28;20020;-58
2022/04/23 16:54:07;;;;;;;9.48;5.72;;;;;;;10.53;100.00;97265.78;5076986;28;20126;-56
2022/04/23 16:56:35;;;;;;;7.68;5.38;;;;;;;10.60;100.00;97271.91;5078286;28;20024;-58
2022/04/23 16:59:01;;;;;;;7.75;5.82;;;;;;;10.63;100.00;97257.75;5077042;28;20027;-58
